createdAt,value
2022-11-16T00:01:41.162Z,71.42
2022-11-16T00:04:07.732Z,71.46
2022-11-16T00:06:36.291Z,71.67
2022-11-16T00:09:02.721Z,71.64
2022-11-16T00:11:29.138Z,71.50
2022-11-16T00:13:55.572Z,72.00
2022-11-16T00:16:22.029Z,71.63
2022-11-16T00:18:48.426Z,71.91
2022-11-16T00:21:14.886Z,72.26
2022-11-16T00:23:42.360Z,70.18
2022-11-16T00:26:09.024Z,75.15
2022-11-16T00:28:36.494Z,71.89
2022-11-16T00:31:07.473Z,74.85
2022-11-16T00:33:33.950Z,74.81
2022-11-16T00:36:00.402Z,74.59
2022-11-16T00:38:26.885Z,74.74
2022-11-16T00:40:53.331Z,74.81
2022-11-16T00:43:19.917Z,74.21
2022-11-16T00:45:46.384Z,74.40
2022-11-16T00:48:12.798Z,73.48
2022-11-16T00:50:39.282Z,73.25
2022-11-16T00:53:05.798Z,72.63
2022-11-16T00:55:32.316Z,72.11
2022-11-16T00:57:58.884Z,71.89
2022-11-16T01:00:25.382Z,72.64
2022-11-16T01:02:56.733Z,72.41
2022-11-16T01:05:23.085Z,72.01
2022-11-16T01:07:49.602Z,71.19
2022-11-16T01:10:16.043Z,73.15
2022-11-16T01:12:44.206Z,72.84
2022-11-16T01:15:10.609Z,73.14
2022-11-16T01:17:39.761Z,72.37
2022-11-16T01:20:06.217Z,72.76
2022-11-16T01:22:32.742Z,72.08
2022-11-16T01:24:59.118Z,72.43
2022-11-16T01:33:07.264Z,71.83
2022-11-16T01:35:33.678Z,73.31
2022-11-16T01:38:00.102Z,72.93
2022-11-16T01:40:26.578Z,72.94
2022-11-16T01:42:53.018Z,73.02
2022-11-16T01:45:22.553Z,72.79
2022-11-16T01:47:49.124Z,73.22
2022-11-16T01:50:15.538Z,72.55
2022-11-16T01:52:41.957Z,71.94
2022-11-16T01:55:08.339Z,72.72
2022-11-16T01:57:34.774Z,72.05
2022-11-16T02:00:01.108Z,71.64
2022-11-16T02:02:27.529Z,71.13
2022-11-16T02:04:54.160Z,71.71
2022-11-16T02:07:21.466Z,73.24
2022-11-16T02:09:47.911Z,72.95
2022-11-16T02:12:14.281Z,72.55
2022-11-16T02:14:40.719Z,73.15
2022-11-16T02:17:09.853Z,74.10
2022-11-16T02:19:37.039Z,73.75
2022-11-16T02:22:03.442Z,73.37
2022-11-16T02:24:29.824Z,73.60
2022-11-16T02:26:56.200Z,74.21
2022-11-16T02:29:22.689Z,73.27
2022-11-16T02:31:49.061Z,73.50
2022-11-16T02:34:15.492Z,73.09
2022-11-16T02:36:42.030Z,72.05
2022-11-16T02:39:08.365Z,70.93
2022-11-16T02:41:34.833Z,71.50
2022-11-16T02:44:01.233Z,73.20
2022-11-16T02:46:29.923Z,73.42
2022-11-16T02:48:56.363Z,73.38
2022-11-16T02:51:22.716Z,72.24
2022-11-16T02:53:49.048Z,71.53
2022-11-16T02:56:15.372Z,71.81
2022-11-16T02:58:41.752Z,72.48
2022-11-16T03:01:08.252Z,72.69
2022-11-16T03:03:34.776Z,72.53
2022-11-16T03:06:09.892Z,72.57
2022-11-16T03:08:36.577Z,72.43
2022-11-16T03:11:07.061Z,72.79
2022-11-16T03:13:33.395Z,72.70
2022-11-16T03:15:59.740Z,71.93
2022-11-16T03:18:26.250Z,71.80
2022-11-16T03:20:52.627Z,72.13
2022-11-16T03:23:18.987Z,72.21
2022-11-16T03:25:45.370Z,72.35
2022-11-16T03:28:14.772Z,72.27
2022-11-16T03:30:41.127Z,71.83
2022-11-16T03:33:07.506Z,71.44
2022-11-16T03:35:33.936Z,71.08
2022-11-16T03:38:10.466Z,72.28
2022-11-16T03:40:36.836Z,72.90
2022-11-16T03:43:03.208Z,73.01
2022-11-16T03:45:30.075Z,72.84
2022-11-16T03:47:56.475Z,73.33
2022-11-16T03:50:22.827Z,72.60
2022-11-16T03:52:49.205Z,73.00
2022-11-16T03:55:15.607Z,72.12
2022-11-16T03:57:41.951Z,72.91
2022-11-16T04:00:15.968Z,72.66
2022-11-16T04:02:51.004Z,72.24
2022-11-16T04:05:17.499Z,72.43
2022-11-16T04:07:43.907Z,71.60
2022-11-16T04:10:10.379Z,71.13
2022-11-16T04:12:36.787Z,70.15
2022-11-16T04:15:03.221Z,69.76
2022-11-16T04:17:29.774Z,66.88
2022-11-16T04:19:58.255Z,67.28
2022-11-16T04:22:24.911Z,67.85
2022-11-16T04:24:51.322Z,67.71
2022-11-16T04:27:17.811Z,66.21
2022-11-16T04:29:44.329Z,66.23
2022-11-16T04:32:10.696Z,66.66
2022-11-16T04:34:37.072Z,67.16
2022-11-16T04:37:03.490Z,67.35
2022-11-16T04:39:39.156Z,66.31
2022-11-16T04:42:05.520Z,67.44
2022-11-16T04:44:31.898Z,68.70
2022-11-16T04:46:58.433Z,69.07
2022-11-16T04:49:24.795Z,69.41
2022-11-16T04:51:51.120Z,67.79
2022-11-16T04:57:04.134Z,68.64
2022-11-16T04:59:31.222Z,67.15
2022-11-16T05:01:58.952Z,67.56
2022-11-16T05:04:25.524Z,67.99
2022-11-16T05:06:51.996Z,68.33
2022-11-16T05:09:18.484Z,67.81
2022-11-16T05:11:44.950Z,67.95
2022-11-16T05:14:11.550Z,68.52
2022-11-16T05:16:37.986Z,68.06
2022-11-16T05:19:04.447Z,68.14
2022-11-16T05:21:30.890Z,69.01
2022-11-16T05:23:57.328Z,69.13
2022-11-16T05:26:23.718Z,68.19
2022-11-16T05:28:50.248Z,67.73
2022-11-16T05:31:16.684Z,67.46
2022-11-16T05:33:43.220Z,67.81
2022-11-16T05:36:09.745Z,69.11
2022-11-16T05:38:36.519Z,69.35
2022-11-16T05:41:06.550Z,69.52
2022-11-16T05:43:32.967Z,68.51
2022-11-16T05:45:59.373Z,67.93
2022-11-16T05:48:25.777Z,67.49
2022-11-16T05:50:52.152Z,67.44
2022-11-16T05:53:18.534Z,68.17
2022-11-16T05:55:47.920Z,67.84
2022-11-16T05:58:15.638Z,68.25
2022-11-16T06:00:42.054Z,68.27
2022-11-16T06:03:08.500Z,68.00
2022-11-16T06:05:40.019Z,68.15
2022-11-16T06:08:09.125Z,68.06
2022-11-16T06:10:35.509Z,67.55
2022-11-16T06:13:01.841Z,67.44
2022-11-16T06:15:28.252Z,67.49
2022-11-16T06:17:54.744Z,66.44
2022-11-16T06:20:21.337Z,66.90
2022-11-16T06:22:47.848Z,66.68
2022-11-16T06:25:14.283Z,67.66
2022-11-16T06:27:40.677Z,67.49
2022-11-16T06:30:07.045Z,67.64
2022-11-16T06:32:33.541Z,67.84
2022-11-16T06:34:59.925Z,68.66
2022-11-16T06:37:28.828Z,68.74
2022-11-16T06:39:55.359Z,67.83
2022-11-16T06:42:21.767Z,67.36
2022-11-16T06:44:50.032Z,66.94
2022-11-16T06:47:22.348Z,66.81
2022-11-16T06:50:09.664Z,66.46
2022-11-16T06:52:38.729Z,66.04
2022-11-16T06:55:05.101Z,64.69
2022-11-16T06:57:31.521Z,64.88
2022-11-16T06:59:58.711Z,65.71
2022-11-16T07:02:26.128Z,67.13
2022-11-16T07:04:52.649Z,68.07
2022-11-16T07:07:19.086Z,67.53
2022-11-16T07:09:45.448Z,67.46
2022-11-16T07:12:11.847Z,67.42
2022-11-16T07:14:38.432Z,67.33
2022-11-16T07:17:09.715Z,66.67
2022-11-16T07:19:36.305Z,67.03
2022-11-16T07:22:02.701Z,67.15
2022-11-16T07:24:29.268Z,67.74
2022-11-16T07:26:55.714Z,67.88
2022-11-16T07:29:22.230Z,68.52
2022-11-16T07:31:48.615Z,69.08
2022-11-16T07:34:14.973Z,69.38
2022-11-16T07:36:41.374Z,69.38
2022-11-16T07:39:07.760Z,69.40
2022-11-16T07:41:34.144Z,68.40
2022-11-16T07:44:00.556Z,69.46
2022-11-16T07:46:46.569Z,69.45
2022-11-16T07:49:13.789Z,68.96
2022-11-16T07:51:40.178Z,68.52
2022-11-16T07:54:08.929Z,68.48
2022-11-16T07:56:35.367Z,69.08
2022-11-16T07:59:02.886Z,68.63
2022-11-16T08:01:29.339Z,68.13
2022-11-16T08:03:55.754Z,68.46
2022-11-16T08:06:22.162Z,68.03
2022-11-16T08:08:58.595Z,68.22
2022-11-16T08:11:27.688Z,69.22
2022-11-16T08:13:54.429Z,68.66
2022-11-16T08:16:23.254Z,68.70
2022-11-16T08:18:49.928Z,68.50
2022-11-16T08:21:16.932Z,68.70
2022-11-16T08:23:43.400Z,68.82
2022-11-16T08:26:09.979Z,68.91
2022-11-16T08:28:36.790Z,67.79
2022-11-16T08:31:03.272Z,69.23
2022-11-16T08:33:34.314Z,68.49
2022-11-16T08:36:01.148Z,67.83
2022-11-16T08:38:30.079Z,67.58
2022-11-16T08:40:57.873Z,67.44
2022-11-16T08:43:24.960Z,67.27
2022-11-16T08:45:51.294Z,67.22
2022-11-16T08:48:17.685Z,67.45
2022-11-16T08:51:10.440Z,67.38
2022-11-16T08:56:13.628Z,67.46
2022-11-16T08:58:40.088Z,66.85
2022-11-16T09:01:06.539Z,66.52
2022-11-16T09:06:31.814Z,67.30
2022-11-16T09:08:59.538Z,68.43
2022-11-16T09:11:37.853Z,69.40
2022-11-16T09:14:04.323Z,68.97
2022-11-16T09:16:30.743Z,69.49
2022-11-16T09:18:59.295Z,69.71
2022-11-16T09:21:25.664Z,69.51
2022-11-16T09:23:52.076Z,69.90
2022-11-16T09:26:18.630Z,70.03
2022-11-16T09:28:45.000Z,69.99
2022-11-16T09:31:12.688Z,68.86
2022-11-16T09:33:39.063Z,68.31
2022-11-16T09:36:05.473Z,68.47
2022-11-16T09:38:54.253Z,68.69
2022-11-16T09:41:18.258Z,68.94
2022-11-16T09:43:46.430Z,69.55
2022-11-16T09:46:13.221Z,68.90
2022-11-16T09:48:42.564Z,67.19
2022-11-16T09:51:09.366Z,67.39
2022-11-16T09:53:35.994Z,68.25
2022-11-16T09:56:08.932Z,68.49
2022-11-16T09:58:36.676Z,68.42
2022-11-16T10:01:03.677Z,68.71
2022-11-16T10:03:30.445Z,66.09
2022-11-16T10:05:56.951Z,66.60
2022-11-16T10:08:23.382Z,67.25
2022-11-16T10:10:53.441Z,66.70
2022-11-16T10:16:10.536Z,66.29
2022-11-16T10:18:36.928Z,66.23
2022-11-16T10:21:03.296Z,65.18
2022-11-16T10:23:29.820Z,65.63
2022-11-16T10:25:58.922Z,65.18
2022-11-16T10:28:27.112Z,66.04
2022-11-16T10:30:54.081Z,65.01
2022-11-16T10:33:20.574Z,65.21
2022-11-16T10:35:47.414Z,65.14
2022-11-16T10:38:13.775Z,66.46
2022-11-16T10:40:41.273Z,66.67
2022-11-16T10:43:07.662Z,66.26
2022-11-16T10:45:34.002Z,66.52
2022-11-16T10:48:00.397Z,67.02
2022-11-16T10:53:07.064Z,65.11
2022-11-16T10:55:33.427Z,65.37
2022-11-16T10:57:59.857Z,64.33
2022-11-16T11:00:26.482Z,64.26
2022-11-16T11:02:52.900Z,63.74
2022-11-16T11:05:19.307Z,63.64
2022-11-16T11:07:45.806Z,63.95
2022-11-16T11:10:12.182Z,63.76
2022-11-16T11:15:25.344Z,65.07
2022-11-16T11:17:59.955Z,63.54
2022-11-16T11:20:29.768Z,63.73
2022-11-16T11:22:56.161Z,63.51
2022-11-16T11:25:22.535Z,62.13
2022-11-16T11:27:49.267Z,61.62
2022-11-16T11:30:16.072Z,62.07
2022-11-16T11:32:42.644Z,62.18
2022-11-16T11:35:09.018Z,62.01
2022-11-16T11:37:36.701Z,62.40
2022-11-16T11:40:05.011Z,62.25
2022-11-16T11:42:31.404Z,62.53
2022-11-16T11:44:57.918Z,62.21
2022-11-16T11:50:10.650Z,60.44
2022-11-16T11:52:38.616Z,60.69
2022-11-16T11:55:05.175Z,60.23
2022-11-16T11:57:31.610Z,60.06
2022-11-16T12:00:00.310Z,61.85
2022-11-16T12:02:26.719Z,62.36
2022-11-16T12:04:53.693Z,62.16
2022-11-16T12:07:20.152Z,62.04
2022-11-16T12:09:47.721Z,62.29
2022-11-16T12:12:15.083Z,60.27
2022-11-16T12:14:41.557Z,58.65
2022-11-16T12:17:08.061Z,57.57
2022-11-16T12:19:34.500Z,58.19
2022-11-16T12:22:00.872Z,57.83
2022-11-16T12:24:27.287Z,58.67
2022-11-16T12:26:53.678Z,57.67
2022-11-16T12:29:20.040Z,58.15
2022-11-16T12:31:46.427Z,58.48
2022-11-16T12:34:12.786Z,58.59
2022-11-16T12:36:39.173Z,58.05
2022-11-16T12:39:05.587Z,57.47
2022-11-16T12:41:32.069Z,59.87
2022-11-16T12:43:58.457Z,61.43
2022-11-16T12:52:07.187Z,62.13
2022-11-16T12:54:37.193Z,62.03
2022-11-16T12:57:04.656Z,62.60
2022-11-16T12:59:30.976Z,62.94
2022-11-16T13:02:02.532Z,64.02
2022-11-16T13:04:29.388Z,63.30
2022-11-16T13:06:55.829Z,63.28
2022-11-16T13:09:22.414Z,62.72
2022-11-16T13:11:48.835Z,62.11
2022-11-16T13:14:15.817Z,61.57
2022-11-16T13:16:42.362Z,61.45
2022-11-16T13:19:08.797Z,61.40
2022-11-16T13:21:35.169Z,61.97
2022-11-16T13:24:01.727Z,61.66
2022-11-16T13:26:28.642Z,60.97
2022-11-16T13:28:56.677Z,61.88
2022-11-16T13:31:26.081Z,62.05
2022-11-16T13:33:54.497Z,62.17
2022-11-16T13:36:20.991Z,61.63
2022-11-16T13:38:51.634Z,61.27
2022-11-16T13:41:18.019Z,60.95
2022-11-16T13:43:44.387Z,60.03
2022-11-16T13:46:22.424Z,59.65
2022-11-16T13:48:57.177Z,59.71
2022-11-16T13:51:23.559Z,59.77
2022-11-16T13:54:44.753Z,59.10
2022-11-16T13:56:36.505Z,59.58
2022-11-16T13:59:02.865Z,59.42
2022-11-16T14:01:29.333Z,59.82
2022-11-16T14:03:55.696Z,59.38
2022-11-16T14:06:22.066Z,59.88
2022-11-16T14:08:49.442Z,59.52
2022-11-16T14:11:15.754Z,58.66
2022-11-16T14:13:42.082Z,59.10
2022-11-16T14:16:08.558Z,59.46
2022-11-16T14:18:34.956Z,60.03
2022-11-16T14:21:01.307Z,59.74
2022-11-16T14:23:27.649Z,59.58
2022-11-16T14:25:54.321Z,59.58
2022-11-16T14:28:20.730Z,59.07
2022-11-16T14:30:47.167Z,59.31
2022-11-16T14:33:14.288Z,59.06
2022-11-16T14:35:40.711Z,59.44
2022-11-16T14:38:07.138Z,59.29
2022-11-16T14:43:17.177Z,59.43
2022-11-16T14:45:46.177Z,59.59
2022-11-16T14:48:12.607Z,59.96
2022-11-16T14:50:41.033Z,60.44
2022-11-16T14:53:07.569Z,59.89
2022-11-16T14:55:35.318Z,60.76
2022-11-16T14:58:05.563Z,60.92
2022-11-16T15:00:32.239Z,60.04
2022-11-16T15:03:02.633Z,60.85
2022-11-16T15:05:29.796Z,60.25
2022-11-16T15:07:56.180Z,60.22
2022-11-16T15:10:22.641Z,59.71
2022-11-16T15:12:48.986Z,59.62
2022-11-16T15:15:15.373Z,59.70
2022-11-16T15:17:41.744Z,59.79
2022-11-16T15:20:08.163Z,60.38
2022-11-16T15:22:34.744Z,60.98
2022-11-16T15:25:01.113Z,61.27
2022-11-16T15:27:27.523Z,61.20
2022-11-16T15:29:54.263Z,61.29
2022-11-16T15:32:20.627Z,61.37
2022-11-16T15:34:50.572Z,61.57
2022-11-16T15:37:17.991Z,61.59
2022-11-16T15:39:44.404Z,60.46
2022-11-16T15:42:13.456Z,60.18
2022-11-16T15:44:40.060Z,60.39
2022-11-16T15:47:06.432Z,61.26
2022-11-16T15:49:33.320Z,61.89
2022-11-16T15:52:00.323Z,61.89
2022-11-16T15:54:26.681Z,63.07
2022-11-16T15:56:53.027Z,63.64
2022-11-16T15:59:19.787Z,63.58
2022-11-16T16:01:46.261Z,63.69
2022-11-16T16:04:12.760Z,63.89
2022-11-16T16:06:45.343Z,64.35
2022-11-16T16:09:11.789Z,63.87
2022-11-16T16:11:38.210Z,64.59
2022-11-16T16:14:04.624Z,63.03
2022-11-16T16:16:31.137Z,62.22
2022-11-16T16:18:57.909Z,61.87
2022-11-16T16:21:24.371Z,61.62
2022-11-16T16:23:50.810Z,61.01
2022-11-16T16:26:17.455Z,60.81
2022-11-16T16:28:43.858Z,60.62
2022-11-16T16:31:10.272Z,61.01
2022-11-16T16:33:37.133Z,60.89
2022-11-16T16:36:03.690Z,59.47
2022-11-16T16:38:30.150Z,59.32
2022-11-16T16:40:56.744Z,59.47
2022-11-16T16:43:23.174Z,59.33
2022-11-16T16:45:52.667Z,58.88
2022-11-16T16:48:19.417Z,57.87
2022-11-16T16:50:45.816Z,58.39
2022-11-16T16:53:12.381Z,58.71
2022-11-16T16:55:38.826Z,58.96
2022-11-16T16:58:05.194Z,58.47
2022-11-16T17:00:31.606Z,58.61
2022-11-16T17:02:58.029Z,58.99
2022-11-16T17:05:24.436Z,59.04
2022-11-16T17:07:50.841Z,59.32
2022-11-16T17:10:17.218Z,59.92
2022-11-16T17:12:43.665Z,59.76
2022-11-16T17:15:17.968Z,59.06
2022-11-16T17:17:45.766Z,58.86
2022-11-16T17:20:13.199Z,59.64
2022-11-16T17:22:46.900Z,59.85
2022-11-16T17:25:13.521Z,59.99
2022-11-16T17:27:40.015Z,59.23
2022-11-16T17:32:56.710Z,58.60
2022-11-16T17:35:23.104Z,58.21
2022-11-16T17:37:49.516Z,59.02
2022-11-16T17:40:16.598Z,60.44
2022-11-16T17:42:45.176Z,59.98
2022-11-16T17:45:11.706Z,59.89
2022-11-16T17:47:39.035Z,60.35
2022-11-16T17:50:07.628Z,61.22
2022-11-16T17:52:35.184Z,61.66
2022-11-16T17:55:01.648Z,62.61
2022-11-16T17:57:28.155Z,61.01
2022-11-16T17:59:56.411Z,61.29
2022-11-16T18:02:25.227Z,59.64
2022-11-16T18:04:51.701Z,58.89
2022-11-16T18:07:24.954Z,58.38
2022-11-16T18:09:51.410Z,58.61
2022-11-16T18:12:17.766Z,59.75
2022-11-16T18:14:59.968Z,60.08
2022-11-16T18:17:30.505Z,60.41
2022-11-16T18:19:56.908Z,59.88
2022-11-16T18:22:23.289Z,59.28
2022-11-16T18:24:49.671Z,57.92
2022-11-16T18:27:16.054Z,58.22
2022-11-16T18:29:42.938Z,58.19
2022-11-16T18:32:12.015Z,59.12
2022-11-16T18:34:38.439Z,60.47
2022-11-16T18:37:12.174Z,62.75
2022-11-16T18:39:38.574Z,63.16
2022-11-16T18:42:04.954Z,63.13
2022-11-16T18:44:31.466Z,61.77
2022-11-16T18:46:58.218Z,60.01
2022-11-16T18:49:27.162Z,56.89
2022-11-16T18:51:53.665Z,58.92
2022-11-16T18:54:21.034Z,58.31
2022-11-16T18:56:48.265Z,57.98
2022-11-16T18:59:14.655Z,56.72
2022-11-16T19:04:25.311Z,57.27
2022-11-16T19:06:59.886Z,57.21
2022-11-16T19:09:26.374Z,55.97
2022-11-16T19:12:12.294Z,54.87
2022-11-16T19:14:38.721Z,55.28
2022-11-16T19:17:05.215Z,56.97
2022-11-16T19:19:31.631Z,56.18
2022-11-16T19:21:58.113Z,56.63
2022-11-16T19:24:24.449Z,56.66
2022-11-16T19:26:50.867Z,57.69
2022-11-16T19:29:17.329Z,56.72
2022-11-16T19:31:51.165Z,57.31
2022-11-16T19:34:17.766Z,57.83
2022-11-16T19:36:44.210Z,57.34
2022-11-16T19:39:10.773Z,58.65
2022-11-16T19:41:37.181Z,59.77
2022-11-16T19:44:06.613Z,60.34
2022-11-16T19:46:33.014Z,59.87
2022-11-16T19:48:59.422Z,59.47
2022-11-16T19:51:25.823Z,60.04
2022-11-16T19:53:52.254Z,59.49
2022-11-16T19:56:18.621Z,60.05
2022-11-16T19:58:45.144Z,59.87
2022-11-16T20:01:11.829Z,60.23
2022-11-16T20:03:38.661Z,58.99
2022-11-16T20:06:05.364Z,59.90
2022-11-16T20:08:31.817Z,59.29
2022-11-16T20:10:58.196Z,58.83
2022-11-16T20:13:24.587Z,57.84
2022-11-16T20:15:50.937Z,58.76
2022-11-16T20:18:17.297Z,57.78
2022-11-16T20:20:44.049Z,57.00
2022-11-16T20:23:10.485Z,57.06
2022-11-16T20:25:36.830Z,57.59
2022-11-16T20:28:03.216Z,57.03
2022-11-16T20:30:29.644Z,56.46
2022-11-16T20:32:56.619Z,56.69
2022-11-16T20:35:23.052Z,55.78
2022-11-16T20:37:54.388Z,54.45
2022-11-16T20:40:20.815Z,54.40
2022-11-16T20:42:47.209Z,54.34
2022-11-16T20:45:13.780Z,55.03
2022-11-16T20:47:40.136Z,55.38
2022-11-16T20:50:06.541Z,55.46
2022-11-16T20:52:33.611Z,55.25
2022-11-16T20:55:00.118Z,55.84
2022-11-16T20:57:26.569Z,56.26
2022-11-16T20:59:52.976Z,55.90
2022-11-16T21:02:19.385Z,56.38
2022-11-16T21:04:45.836Z,55.10
2022-11-16T21:07:19.156Z,55.64
2022-11-16T21:09:45.821Z,54.08
2022-11-16T21:12:12.202Z,53.67
2022-11-16T21:14:38.595Z,54.27
2022-11-16T21:17:05.029Z,53.15
2022-11-16T21:19:31.450Z,54.32
2022-11-16T21:21:57.848Z,54.29
2022-11-16T21:24:24.269Z,54.12
2022-11-16T21:26:50.651Z,54.53
2022-11-16T21:29:17.455Z,54.74
2022-11-16T21:31:43.870Z,54.85
2022-11-16T21:34:10.221Z,55.34
2022-11-16T21:36:36.617Z,55.91
2022-11-16T21:39:03.023Z,55.98
2022-11-16T21:41:29.406Z,55.39
2022-11-16T21:43:57.841Z,54.30
2022-11-16T21:46:24.157Z,55.28
2022-11-16T21:48:50.587Z,55.88
2022-11-16T21:51:17.117Z,55.79
2022-11-16T21:53:43.536Z,55.14
2022-11-16T21:56:11.336Z,55.49
2022-11-16T21:58:37.775Z,55.49
2022-11-16T22:01:04.305Z,54.44
2022-11-16T22:03:35.167Z,55.44
2022-11-16T22:06:01.711Z,55.18
2022-11-16T22:08:28.198Z,55.06
2022-11-16T22:10:54.619Z,54.93
2022-11-16T22:13:20.985Z,55.41
2022-11-16T22:15:48.806Z,55.86
2022-11-16T22:18:15.165Z,55.71
2022-11-16T22:20:41.768Z,56.34
2022-11-16T22:23:08.261Z,57.31
2022-11-16T22:25:37.901Z,57.46
2022-11-16T22:28:21.167Z,56.44
2022-11-16T22:30:51.986Z,54.97
2022-11-16T22:33:18.815Z,55.19
2022-11-16T22:35:45.221Z,55.20
2022-11-16T22:38:11.748Z,56.43
2022-11-16T22:40:38.153Z,57.91
2022-11-16T22:43:04.546Z,59.31
2022-11-16T22:45:30.981Z,59.17
2022-11-16T22:47:57.465Z,58.46
2022-11-16T22:50:26.022Z,57.44
2022-11-16T22:52:52.454Z,57.69
2022-11-16T22:55:19.039Z,55.64
2022-11-16T22:57:45.483Z,55.23
2022-11-16T23:00:11.908Z,54.90
2022-11-16T23:02:38.829Z,54.92
2022-11-16T23:05:05.221Z,55.86
2022-11-16T23:07:31.864Z,54.81
2022-11-16T23:09:58.371Z,53.18
2022-11-16T23:12:24.761Z,52.71
2022-11-16T23:14:51.164Z,53.27
2022-11-16T23:17:17.570Z,58.87
2022-11-16T23:19:43.996Z,57.25
2022-11-16T23:22:10.461Z,56.02
2022-11-16T23:24:36.856Z,53.91
2022-11-16T23:27:03.297Z,53.79
2022-11-16T23:29:29.881Z,54.29
2022-11-16T23:31:56.222Z,54.07
2022-11-16T23:34:23.187Z,54.25
2022-11-16T23:36:50.264Z,54.35
2022-11-16T23:39:16.603Z,54.77
2022-11-16T23:41:42.918Z,54.27
2022-11-16T23:44:09.325Z,54.45
2022-11-16T23:46:35.742Z,53.45
2022-11-16T23:49:02.255Z,53.51
2022-11-16T23:51:28.819Z,53.21
2022-11-16T23:53:55.238Z,54.27
2022-11-16T23:56:21.711Z,54.33
2022-11-16T23:58:48.157Z,54.07
